createdAt,value
2023-08-12T00:00:59.194Z,20.09
2023-08-12T00:01:59.156Z,20.10
2023-08-12T00:02:59.210Z,19.95
2023-08-12T00:03:59.186Z,20.10
2023-08-12T00:04:59.123Z,20.05
2023-08-12T00:05:59.114Z,20.18
2023-08-12T00:06:59.102Z,20.05
2023-08-12T00:07:59.106Z,20.13
2023-08-12T00:08:59.079Z,20.12
2023-08-12T00:09:59.080Z,20.09
2023-08-12T00:10:59.066Z,20.15
2023-08-12T00:11:59.069Z,20.15
2023-08-12T00:12:59.053Z,20.03
2023-08-12T00:13:59.024Z,20.13
2023-08-12T00:14:59.025Z,20.09
2023-08-12T00:15:59.145Z,20.09
2023-08-12T00:16:59.014Z,19.98
2023-08-12T00:17:59.046Z,20.10
2023-08-12T00:18:58.999Z,20.10
2023-08-12T00:19:58.966Z,20.13
2023-08-12T00:20:58.954Z,20.02
2023-08-12T00:21:58.953Z,20.20
2023-08-12T00:22:58.951Z,20.10
2023-08-12T00:23:58.922Z,20.13
2023-08-12T00:24:58.913Z,20.13
2023-08-12T00:25:58.911Z,20.10
2023-08-12T00:26:58.918Z,20.12
2023-08-12T00:27:58.877Z,20.16
2023-08-12T00:28:58.868Z,20.03
2023-08-12T00:29:58.851Z,20.09
2023-08-12T00:30:58.879Z,20.03
2023-08-12T00:31:58.834Z,20.02
2023-08-12T00:32:58.831Z,20.00
2023-08-12T00:33:58.808Z,20.02
2023-08-12T00:34:58.817Z,20.02
2023-08-12T00:35:58.803Z,20.00
2023-08-12T00:36:58.790Z,19.93
2023-08-12T00:37:58.776Z,19.98
2023-08-12T00:38:58.760Z,19.98
2023-08-12T00:39:58.759Z,19.93
2023-08-12T00:40:58.757Z,19.98
2023-08-12T00:41:58.724Z,19.94
2023-08-12T00:42:58.710Z,19.78
2023-08-12T00:43:58.698Z,19.70
2023-08-12T00:44:58.728Z,19.68
2023-08-12T00:45:58.675Z,19.66
2023-08-12T00:46:58.777Z,19.75
2023-08-12T00:47:58.680Z,19.76
2023-08-12T00:48:58.678Z,19.78
2023-08-12T00:49:58.666Z,19.84
2023-08-12T00:50:58.642Z,19.80
2023-08-12T00:51:58.614Z,19.80
2023-08-12T00:52:58.604Z,19.84
2023-08-12T00:53:58.605Z,19.86
2023-08-12T00:54:58.614Z,19.90
2023-08-12T00:55:58.570Z,19.84
2023-08-12T00:56:58.559Z,19.90
2023-08-12T00:57:58.550Z,19.91
2023-08-12T00:58:58.577Z,19.95
2023-08-12T00:59:58.527Z,19.97
2023-08-12T01:00:58.572Z,20.02
2023-08-12T01:01:58.511Z,19.91
2023-08-12T01:02:58.667Z,19.98
2023-08-12T01:03:58.566Z,19.95
2023-08-12T01:04:58.472Z,19.94
2023-08-12T01:05:58.464Z,19.91
2023-08-12T01:06:58.500Z,19.88
2023-08-12T01:07:58.462Z,19.88
2023-08-12T01:08:58.438Z,19.79
2023-08-12T01:09:58.419Z,19.80
2023-08-12T01:10:58.415Z,19.80
2023-08-12T01:11:58.404Z,19.78
2023-08-12T01:12:58.406Z,19.86
2023-08-12T01:13:58.378Z,19.84
2023-08-12T01:14:58.386Z,19.79
2023-08-12T01:15:58.373Z,19.73
2023-08-12T01:16:58.408Z,19.75
2023-08-12T01:17:58.381Z,19.69
2023-08-12T01:18:58.390Z,19.73
2023-08-12T01:19:58.318Z,19.61
2023-08-12T01:20:58.309Z,19.63
2023-08-12T01:21:58.344Z,19.66
2023-08-12T01:22:58.307Z,19.61
2023-08-12T01:23:58.270Z,19.61
2023-08-12T01:24:58.269Z,19.63
2023-08-12T01:25:58.248Z,19.54
2023-08-12T01:26:58.263Z,19.63
2023-08-12T01:27:58.228Z,19.66
2023-08-12T01:28:58.220Z,19.69
2023-08-12T01:29:58.207Z,19.69
2023-08-12T01:30:58.261Z,19.53
2023-08-12T01:31:58.198Z,19.61
2023-08-12T01:32:58.224Z,19.57
2023-08-12T01:33:58.162Z,19.60
2023-08-12T01:34:58.157Z,19.57
2023-08-12T01:35:58.183Z,19.55
2023-08-12T01:36:58.133Z,19.65
2023-08-12T01:37:58.120Z,19.65
2023-08-12T01:38:58.133Z,19.66
2023-08-12T01:39:58.094Z,19.72
2023-08-12T01:40:58.111Z,19.65
2023-08-12T01:41:58.075Z,19.70
2023-08-12T01:42:58.066Z,19.68
2023-08-12T01:43:58.050Z,19.70
2023-08-12T01:44:58.061Z,19.68
2023-08-12T01:45:58.055Z,19.70
2023-08-12T01:46:58.026Z,19.50
2023-08-12T01:47:58.033Z,19.55
2023-08-12T01:48:58.004Z,19.57
2023-08-12T01:49:58.005Z,19.61
2023-08-12T01:50:57.976Z,19.54
2023-08-12T01:51:57.972Z,19.48
2023-08-12T01:52:57.959Z,19.47
2023-08-12T01:53:57.952Z,19.53
2023-08-12T01:54:57.967Z,19.39
2023-08-12T01:55:57.921Z,19.36
2023-08-12T01:56:57.916Z,19.39
2023-08-12T01:57:57.899Z,19.31
2023-08-12T01:58:57.920Z,19.33
2023-08-12T01:59:57.898Z,19.35
2023-08-12T02:00:57.870Z,19.36
2023-08-12T02:01:57.995Z,19.32
2023-08-12T02:02:57.891Z,19.24
2023-08-12T02:03:57.959Z,19.32
2023-08-12T02:04:57.824Z,19.23
2023-08-12T02:05:57.832Z,19.28
2023-08-12T02:06:57.807Z,19.23
2023-08-12T02:07:57.818Z,19.28
2023-08-12T02:08:57.810Z,19.18
2023-08-12T02:09:57.783Z,19.21
2023-08-12T02:10:57.780Z,19.23
2023-08-12T02:11:57.751Z,19.20
2023-08-12T02:12:57.757Z,19.28
2023-08-12T02:13:57.728Z,19.21
2023-08-12T02:14:57.737Z,19.25
2023-08-12T02:15:57.710Z,19.25
2023-08-12T02:16:57.707Z,19.29
2023-08-12T02:17:57.749Z,19.24
2023-08-12T02:18:57.678Z,19.20
2023-08-12T02:19:57.660Z,19.14
2023-08-12T02:20:57.659Z,19.14
2023-08-12T02:21:57.659Z,19.14
2023-08-12T02:22:57.678Z,19.14
2023-08-12T02:23:57.620Z,19.20
2023-08-12T02:24:57.616Z,19.23
2023-08-12T02:25:57.601Z,19.28
2023-08-12T02:26:57.618Z,19.23
2023-08-12T02:27:57.608Z,19.24
2023-08-12T02:28:57.569Z,19.33
2023-08-12T02:29:57.556Z,19.31
2023-08-12T02:30:57.556Z,19.33
2023-08-12T02:31:57.641Z,19.29
2023-08-12T02:32:57.562Z,19.32
2023-08-12T02:33:57.515Z,19.38
2023-08-12T02:34:57.507Z,19.39
2023-08-12T02:35:57.489Z,19.40
2023-08-12T02:36:57.491Z,19.40
2023-08-12T02:37:57.473Z,19.40
2023-08-12T02:38:57.488Z,19.39
2023-08-12T02:39:57.452Z,19.39
2023-08-12T02:40:57.474Z,19.38
2023-08-12T02:41:57.429Z,19.38
2023-08-12T02:42:57.435Z,19.40
2023-08-12T02:43:57.427Z,19.38
2023-08-12T02:44:57.396Z,19.38
2023-08-12T02:45:57.417Z,19.36
2023-08-12T02:46:57.371Z,19.43
2023-08-12T02:47:57.413Z,19.35
2023-08-12T02:48:57.360Z,19.33
2023-08-12T02:49:57.354Z,19.35
2023-08-12T02:50:57.348Z,19.40
2023-08-12T02:51:57.319Z,19.36
2023-08-12T02:52:57.311Z,19.38
2023-08-12T02:53:57.293Z,19.38
2023-08-12T02:54:57.314Z,19.32
2023-08-12T02:55:57.280Z,19.31
2023-08-12T02:56:57.280Z,19.35
2023-08-12T02:57:57.290Z,19.38
2023-08-12T02:58:57.282Z,19.35
2023-08-12T02:59:57.247Z,19.36
2023-08-12T03:00:57.258Z,19.38
2023-08-12T03:01:57.210Z,19.36
2023-08-12T03:02:57.258Z,19.35
2023-08-12T03:03:57.192Z,19.32
2023-08-12T03:04:57.204Z,19.28
2023-08-12T03:05:57.178Z,19.31
2023-08-12T03:06:57.173Z,19.24
2023-08-12T03:07:57.144Z,19.17
2023-08-12T03:08:57.165Z,19.25
2023-08-12T03:09:57.141Z,19.23
2023-08-12T03:10:57.116Z,19.20
2023-08-12T03:11:57.115Z,19.13
2023-08-12T03:12:57.093Z,19.20
2023-08-12T03:13:57.100Z,19.02
2023-08-12T03:14:57.093Z,19.20
2023-08-12T03:15:57.107Z,19.13
2023-08-12T03:16:57.047Z,19.15
2023-08-12T03:17:57.059Z,19.18
2023-08-12T03:18:57.044Z,19.13
2023-08-12T03:19:57.048Z,19.20
2023-08-12T03:20:57.015Z,19.18
2023-08-12T03:21:56.992Z,19.23
2023-08-12T03:22:57.036Z,19.20
2023-08-12T03:23:57.049Z,19.14
2023-08-12T03:24:56.962Z,19.20
2023-08-12T03:25:56.957Z,19.17
2023-08-12T03:26:56.944Z,19.18
2023-08-12T03:27:56.946Z,19.08
2023-08-12T03:28:56.917Z,19.02
2023-08-12T03:29:56.904Z,19.05
2023-08-12T03:30:56.939Z,19.08
2023-08-12T03:31:56.933Z,19.02
2023-08-12T03:32:56.926Z,19.05
2023-08-12T03:33:56.866Z,18.99
2023-08-12T03:34:56.867Z,18.94
2023-08-12T03:35:56.843Z,19.02
2023-08-12T03:36:56.846Z,18.97
2023-08-12T03:37:56.827Z,19.02
2023-08-12T03:38:56.819Z,19.05
2023-08-12T03:39:56.800Z,19.08
2023-08-12T03:40:56.792Z,18.99
2023-08-12T03:41:56.801Z,18.94
2023-08-12T03:42:56.773Z,19.02
2023-08-12T03:43:56.753Z,18.98
2023-08-12T03:44:56.753Z,19.08
2023-08-12T03:45:56.747Z,19.06
2023-08-12T03:46:56.796Z,18.97
2023-08-12T03:47:56.732Z,18.94
2023-08-12T03:48:56.760Z,18.97
2023-08-12T03:49:56.687Z,19.02
2023-08-12T03:50:56.696Z,18.95
2023-08-12T03:51:56.677Z,18.97
2023-08-12T03:52:56.657Z,19.06
2023-08-12T03:53:56.653Z,19.05
2023-08-12T03:54:56.636Z,19.01
2023-08-12T03:55:56.638Z,18.98
2023-08-12T03:56:56.622Z,18.94
2023-08-12T03:57:56.609Z,18.95
2023-08-12T03:58:56.596Z,19.02
2023-08-12T03:59:56.603Z,18.95
2023-08-12T04:00:56.626Z,18.99
2023-08-12T04:01:56.572Z,18.99
2023-08-12T04:02:56.988Z,19.01
2023-08-12T04:03:56.575Z,18.97
2023-08-12T04:04:56.543Z,18.92
2023-08-12T04:05:56.529Z,18.98
2023-08-12T04:06:56.516Z,18.92
2023-08-12T04:07:56.495Z,19.05
2023-08-12T04:08:56.488Z,19.10
2023-08-12T04:09:56.492Z,18.95
2023-08-12T04:10:56.459Z,18.95
2023-08-12T04:11:56.459Z,19.06
2023-08-12T04:12:56.443Z,19.02
2023-08-12T04:13:56.454Z,18.92
2023-08-12T04:14:56.458Z,18.97
2023-08-12T04:15:56.412Z,18.95
2023-08-12T04:16:56.440Z,18.95
2023-08-12T04:17:56.383Z,18.92
2023-08-12T04:18:56.429Z,18.99
2023-08-12T04:19:56.366Z,18.94
2023-08-12T04:20:56.357Z,18.92
2023-08-12T04:21:56.341Z,18.99
2023-08-12T04:22:56.346Z,18.95
2023-08-12T04:23:56.393Z,18.95
2023-08-12T04:24:56.320Z,18.95
2023-08-12T04:25:56.313Z,19.05
2023-08-12T04:26:56.288Z,19.11
2023-08-12T04:27:56.302Z,19.08
2023-08-12T04:28:56.290Z,19.15
2023-08-12T04:29:56.256Z,19.20
2023-08-12T04:30:56.290Z,19.20
2023-08-12T04:31:56.240Z,19.23
2023-08-12T04:32:56.256Z,19.32
2023-08-12T04:33:56.257Z,19.33
2023-08-12T04:34:56.224Z,19.39
2023-08-12T04:35:56.193Z,19.43
2023-08-12T04:36:56.180Z,19.47
2023-08-12T04:37:56.207Z,19.46
2023-08-12T04:38:56.160Z,19.58
2023-08-12T04:39:56.151Z,19.58
2023-08-12T04:40:56.208Z,19.60
2023-08-12T04:41:56.208Z,19.54
2023-08-12T04:42:56.166Z,19.63
2023-08-12T04:43:56.118Z,19.63
2023-08-12T04:44:56.105Z,19.72
2023-08-12T04:45:56.142Z,19.86
2023-08-12T04:46:56.093Z,19.84
2023-08-12T04:47:56.166Z,19.80
2023-08-12T04:48:56.060Z,20.00
2023-08-12T04:49:56.049Z,20.00
2023-08-12T04:50:56.060Z,19.97
2023-08-12T04:51:56.087Z,20.00
2023-08-12T04:52:56.042Z,19.97
2023-08-12T04:53:56.000Z,20.02
2023-08-12T04:54:56.000Z,20.03
2023-08-12T04:55:56.008Z,20.13
2023-08-12T04:56:55.967Z,20.10
2023-08-12T04:57:55.958Z,20.23
2023-08-12T04:58:55.952Z,20.21
2023-08-12T04:59:55.945Z,20.31
2023-08-12T05:00:55.961Z,20.30
2023-08-12T05:02:03.978Z,20.35
2023-08-12T05:02:56.958Z,20.41
2023-08-12T05:03:55.913Z,20.41
2023-08-12T05:04:55.933Z,20.42
2023-08-12T05:05:55.896Z,20.35
2023-08-12T05:06:55.881Z,20.49
2023-08-12T05:07:55.893Z,20.58
2023-08-12T05:08:55.840Z,20.56
2023-08-12T05:09:55.868Z,20.66
2023-08-12T05:10:55.841Z,20.76
2023-08-12T05:11:55.810Z,20.77
2023-08-12T05:12:55.799Z,20.87
2023-08-12T05:13:55.792Z,20.77
2023-08-12T05:14:55.811Z,20.87
2023-08-12T05:15:55.806Z,20.98
2023-08-12T05:16:55.758Z,20.91
2023-08-12T05:17:55.789Z,21.01
2023-08-12T05:18:55.756Z,21.06
2023-08-12T05:19:55.757Z,21.17
2023-08-12T05:20:55.718Z,21.29
2023-08-12T05:21:55.710Z,21.44
2023-08-12T05:22:55.710Z,21.45
2023-08-12T05:23:55.709Z,21.51
2023-08-12T05:24:55.717Z,21.46
2023-08-12T05:25:55.834Z,21.63
2023-08-12T05:26:55.652Z,21.56
2023-08-12T05:27:55.662Z,21.66
2023-08-12T05:28:55.646Z,21.69
2023-08-12T05:29:56.325Z,21.63
2023-08-12T05:30:55.619Z,21.78
2023-08-12T05:31:55.690Z,21.79
2023-08-12T05:32:55.728Z,21.91
2023-08-12T05:33:55.752Z,21.91
2023-08-12T05:34:55.574Z,22.02
2023-08-12T05:35:55.571Z,22.13
2023-08-12T05:36:55.569Z,22.23
2023-08-12T05:37:55.551Z,22.25
2023-08-12T05:38:55.551Z,22.32
2023-08-12T05:39:55.517Z,22.32
2023-08-12T05:40:55.509Z,22.38
2023-08-12T05:41:55.494Z,22.44
2023-08-12T05:42:55.498Z,22.46
2023-08-12T05:43:55.493Z,22.46
2023-08-12T05:44:55.456Z,22.53
2023-08-12T05:45:55.491Z,22.37
2023-08-12T05:46:55.451Z,22.41
2023-08-12T05:47:55.481Z,22.35
2023-08-12T05:48:55.423Z,22.31
2023-08-12T05:49:55.408Z,22.23
2023-08-12T05:50:55.400Z,22.23
2023-08-12T05:51:55.434Z,22.14
2023-08-12T05:52:55.412Z,22.14
2023-08-12T05:53:55.363Z,22.17
2023-08-12T05:54:55.400Z,22.06
2023-08-12T05:55:55.356Z,22.02
2023-08-12T05:56:55.354Z,21.98
2023-08-12T05:57:55.318Z,22.07
2023-08-12T05:58:55.303Z,22.10
2023-08-12T05:59:55.292Z,22.14
2023-08-12T06:00:55.318Z,22.17
2023-08-12T06:01:55.312Z,22.29
2023-08-12T06:02:55.344Z,22.27
2023-08-12T06:03:55.264Z,22.35
2023-08-12T06:04:55.237Z,22.37
2023-08-12T06:05:55.285Z,22.31
2023-08-12T06:06:55.216Z,22.31
2023-08-12T06:07:55.213Z,22.29
2023-08-12T06:08:55.203Z,22.29
2023-08-12T06:09:55.187Z,22.35
2023-08-12T06:10:55.204Z,22.38
2023-08-12T06:11:55.161Z,22.34
2023-08-12T06:12:55.152Z,22.38
2023-08-12T06:13:55.178Z,22.46
2023-08-12T06:14:55.151Z,22.50
2023-08-12T06:15:55.175Z,22.54
2023-08-12T06:16:58.183Z,22.50
2023-08-12T06:17:55.115Z,22.54
2023-08-12T06:18:55.085Z,22.56
2023-08-12T06:19:55.096Z,22.62
2023-08-12T06:20:55.068Z,22.74
2023-08-12T06:21:55.055Z,22.77
2023-08-12T06:22:55.059Z,22.71
2023-08-12T06:23:55.035Z,22.65
2023-08-12T06:24:55.029Z,22.60
2023-08-12T06:25:55.011Z,22.69
2023-08-12T06:26:55.067Z,22.77
2023-08-12T06:27:54.987Z,22.78
2023-08-12T06:28:54.997Z,22.75
2023-08-12T06:29:54.996Z,22.84
2023-08-12T06:30:54.952Z,22.86
2023-08-12T06:31:54.943Z,22.80
2023-08-12T06:32:54.953Z,22.94
2023-08-12T06:33:55.021Z,22.93
2023-08-12T06:34:54.919Z,23.04
2023-08-12T06:35:54.902Z,23.12
2023-08-12T06:36:54.890Z,23.09
2023-08-12T06:37:54.881Z,23.12
2023-08-12T06:38:54.891Z,23.24
2023-08-12T06:39:54.864Z,23.24
2023-08-12T06:40:54.851Z,23.24
2023-08-12T06:41:54.883Z,23.38
2023-08-12T06:42:54.854Z,23.40
2023-08-12T06:43:54.848Z,23.38
2023-08-12T06:44:54.806Z,23.35
2023-08-12T06:45:54.814Z,23.39
2023-08-12T06:46:54.786Z,23.35
2023-08-12T06:47:54.795Z,23.35
2023-08-12T06:48:54.760Z,23.38
2023-08-12T06:49:54.748Z,23.29
2023-08-12T06:50:54.745Z,23.35
2023-08-12T06:51:54.740Z,23.27
2023-08-12T06:52:54.748Z,23.14
2023-08-12T06:53:54.716Z,23.11
2023-08-12T06:54:54.699Z,23.01
2023-08-12T06:55:54.684Z,22.97
2023-08-12T06:56:54.688Z,22.99
2023-08-12T06:57:54.691Z,23.04
2023-08-12T06:58:54.697Z,23.15
2023-08-12T06:59:54.639Z,23.26
2023-08-12T07:00:54.724Z,23.40
2023-08-12T07:01:54.633Z,23.50
2023-08-12T07:02:54.645Z,23.57
2023-08-12T07:03:54.651Z,23.67
2023-08-12T07:04:54.599Z,23.71
2023-08-12T07:05:54.618Z,23.79
2023-08-12T07:06:54.604Z,23.82
2023-08-12T07:07:54.551Z,23.87
2023-08-12T07:08:54.543Z,23.83
2023-08-12T07:09:54.533Z,23.87
2023-08-12T07:10:54.543Z,23.70
2023-08-12T07:11:54.517Z,23.47
2023-08-12T07:12:54.499Z,23.53
2023-08-12T07:13:54.489Z,23.57
2023-08-12T07:14:54.540Z,23.70
2023-08-12T07:15:54.508Z,23.77
2023-08-12T07:16:54.464Z,24.07
2023-08-12T07:17:54.463Z,24.31
2023-08-12T07:18:54.436Z,24.64
2023-08-12T07:19:54.441Z,24.97
2023-08-12T07:20:54.452Z,25.20
2023-08-12T07:21:54.548Z,25.49
2023-08-12T07:22:54.393Z,25.71
2023-08-12T07:24:03.120Z,25.93
2023-08-12T07:24:55.415Z,25.84
2023-08-12T07:25:54.369Z,25.89
2023-08-12T07:26:54.343Z,25.79
2023-08-12T07:27:54.340Z,25.93
2023-08-12T07:28:54.322Z,25.93
2023-08-12T07:29:54.334Z,25.97
2023-08-12T07:30:54.360Z,25.93
2023-08-12T07:31:54.462Z,25.86
2023-08-12T07:32:54.297Z,25.68
2023-08-12T07:33:54.289Z,25.59
2023-08-12T07:34:54.283Z,25.65
2023-08-12T07:35:54.251Z,25.57
2023-08-12T07:36:54.239Z,25.50
2023-08-12T07:37:54.230Z,25.42
2023-08-12T07:38:54.236Z,25.31
2023-08-12T07:39:54.206Z,25.30
2023-08-12T07:40:54.193Z,25.28
2023-08-12T07:41:54.189Z,25.17
2023-08-12T07:42:54.205Z,25.16
2023-08-12T07:43:54.186Z,24.92
2023-08-12T07:44:54.199Z,24.80
2023-08-12T07:46:07.747Z,24.67
2023-08-12T07:46:55.160Z,24.61
2023-08-12T07:47:54.246Z,24.39
2023-08-12T07:48:54.109Z,24.38
2023-08-12T07:49:54.098Z,24.45
2023-08-12T07:50:54.088Z,24.47
2023-08-12T07:51:54.082Z,24.53
2023-08-12T07:52:54.086Z,24.59
2023-08-12T07:53:54.057Z,24.71
2023-08-12T07:54:54.043Z,24.69
2023-08-12T07:55:54.033Z,24.73
2023-08-12T07:56:54.057Z,24.69
2023-08-12T07:57:54.036Z,24.85
2023-08-12T07:58:54.009Z,24.90
2023-08-12T07:59:53.993Z,25.00
2023-08-12T08:00:53.984Z,24.90
2023-08-12T08:01:54.013Z,24.92
2023-08-12T08:02:54.032Z,25.00
2023-08-12T08:03:53.951Z,25.01
2023-08-12T08:04:53.974Z,25.22
2023-08-12T08:05:53.930Z,25.31
2023-08-12T08:06:53.942Z,25.61
2023-08-12T08:07:53.906Z,25.62
2023-08-12T08:08:53.895Z,25.65
2023-08-12T08:09:53.883Z,25.74
2023-08-12T08:10:53.894Z,25.80
2023-08-12T08:11:54.920Z,25.82
2023-08-12T08:12:53.848Z,25.84
2023-08-12T08:13:53.846Z,25.90
2023-08-12T08:14:53.832Z,25.90
2023-08-12T08:15:53.918Z,25.89
2023-08-12T08:16:53.903Z,25.86
2023-08-12T08:17:55.230Z,25.71
2023-08-12T08:18:53.806Z,25.67
2023-08-12T08:19:53.785Z,25.59
2023-08-12T08:20:53.793Z,25.49
2023-08-12T08:21:53.760Z,25.38
2023-08-12T08:22:53.740Z,25.46
2023-08-12T08:23:53.728Z,25.46
2023-08-12T08:24:53.735Z,25.43
2023-08-12T08:25:53.724Z,25.34
2023-08-12T08:26:53.700Z,25.27
2023-08-12T08:27:53.684Z,25.25
2023-08-12T08:28:53.676Z,25.25
2023-08-12T08:29:53.690Z,25.09
2023-08-12T08:30:53.728Z,25.01
2023-08-12T08:31:53.647Z,25.09
2023-08-12T08:32:53.689Z,25.02
2023-08-12T08:33:53.620Z,24.98
2023-08-12T08:34:53.647Z,25.00
2023-08-12T08:35:53.639Z,25.02
2023-08-12T08:36:53.592Z,24.98
2023-08-12T08:37:53.597Z,24.92
2023-08-12T08:38:53.592Z,24.90
2023-08-12T08:39:53.592Z,24.79
2023-08-12T08:40:53.543Z,24.88
2023-08-12T08:41:53.531Z,24.73
2023-08-12T08:42:53.524Z,24.77
2023-08-12T08:43:53.526Z,24.75
2023-08-12T08:44:53.501Z,24.76
2023-08-12T08:45:53.513Z,24.76
2023-08-12T08:46:53.488Z,24.76
2023-08-12T08:47:53.638Z,24.71
2023-08-12T08:48:53.490Z,24.64
2023-08-12T08:49:53.448Z,24.47
2023-08-12T08:50:53.458Z,24.45
2023-08-12T08:51:53.428Z,24.39
2023-08-12T08:52:53.467Z,24.44
2023-08-12T08:53:53.786Z,24.44
2023-08-12T08:54:53.598Z,24.38
2023-08-12T08:56:01.357Z,24.42
2023-08-12T08:57:00.431Z,24.39
2023-08-12T08:58:02.209Z,24.41
2023-08-12T08:58:54.354Z,24.44
2023-08-12T09:00:53.340Z,24.47
2023-08-12T09:01:53.403Z,24.42
2023-08-12T09:02:53.377Z,24.42
2023-08-12T09:03:53.300Z,24.45
2023-08-12T09:04:53.315Z,24.57
2023-08-12T09:05:53.282Z,24.45
2023-08-12T09:06:53.300Z,24.53
2023-08-12T09:07:53.268Z,24.45
2023-08-12T09:08:53.259Z,24.49
2023-08-12T09:09:53.232Z,24.56
2023-08-12T09:10:53.224Z,24.49
2023-08-12T09:11:53.232Z,24.53
2023-08-12T09:12:53.248Z,24.54
2023-08-12T09:13:53.189Z,24.53
2023-08-12T09:14:53.187Z,24.59
2023-08-12T09:15:53.225Z,24.52
2023-08-12T09:16:53.879Z,24.44
2023-08-12T09:17:53.167Z,24.59
2023-08-12T09:18:53.146Z,24.63
2023-08-12T09:19:53.134Z,24.73
2023-08-12T09:20:53.129Z,24.75
2023-08-12T09:21:53.121Z,24.80
2023-08-12T09:22:53.131Z,24.83
2023-08-12T09:23:53.090Z,24.90
2023-08-12T09:24:53.081Z,25.20
2023-08-12T09:25:53.074Z,25.22
2023-08-12T09:26:53.052Z,25.37
2023-08-12T09:27:53.044Z,25.44
2023-08-12T09:28:55.272Z,25.57
2023-08-12T09:29:53.038Z,25.75
2023-08-12T09:30:53.028Z,25.87
2023-08-12T09:31:53.068Z,25.90
2023-08-12T09:32:53.018Z,25.91
2023-08-12T09:33:52.977Z,26.02
2023-08-12T09:34:52.986Z,26.02
2023-08-12T09:35:52.967Z,26.01
2023-08-12T09:36:52.945Z,26.04
2023-08-12T09:37:52.936Z,25.94
2023-08-12T09:38:52.950Z,25.91
2023-08-12T09:39:52.938Z,25.93
2023-08-12T09:40:52.909Z,25.91
2023-08-12T09:41:52.890Z,25.89
2023-08-12T09:42:52.881Z,25.80
2023-08-12T09:43:52.898Z,25.79
2023-08-12T09:44:52.885Z,25.67
2023-08-12T09:45:52.900Z,25.69
2023-08-12T09:46:52.843Z,25.57
2023-08-12T09:47:52.838Z,25.65
2023-08-12T09:48:52.842Z,25.53
2023-08-12T09:49:52.815Z,25.62
2023-08-12T09:50:52.802Z,25.56
2023-08-12T09:51:52.807Z,25.61
2023-08-12T09:52:52.785Z,25.53
2023-08-12T09:53:52.793Z,25.64
2023-08-12T09:54:52.784Z,25.59
2023-08-12T09:55:52.743Z,25.68
2023-08-12T09:56:52.733Z,25.94
2023-08-12T09:57:52.733Z,26.05
2023-08-12T09:58:52.730Z,26.20
2023-08-12T09:59:52.702Z,26.18
2023-08-12T10:00:52.708Z,26.29
2023-08-12T10:01:52.713Z,26.37
2023-08-12T10:02:52.766Z,26.44
2023-08-12T10:03:52.869Z,26.43
2023-08-12T10:04:52.653Z,26.49
2023-08-12T10:05:52.642Z,26.50
2023-08-12T10:06:52.624Z,26.47
2023-08-12T10:07:52.630Z,26.40
2023-08-12T10:08:52.611Z,26.52
2023-08-12T10:09:52.659Z,26.47
2023-08-12T10:11:03.122Z,26.46
2023-08-12T10:11:53.596Z,26.50
2023-08-12T10:12:52.572Z,26.44
2023-08-12T10:13:52.549Z,26.36
2023-08-12T10:14:52.537Z,26.22
2023-08-12T10:15:52.582Z,26.22
2023-08-12T10:16:52.531Z,26.27
2023-08-12T10:17:52.555Z,26.35
2023-08-12T10:18:52.494Z,26.20
2023-08-12T10:19:52.485Z,26.20
2023-08-12T10:20:52.478Z,26.12
2023-08-12T10:21:52.474Z,26.08
2023-08-12T10:22:52.447Z,26.05
2023-08-12T10:23:52.445Z,26.06
2023-08-12T10:24:52.456Z,26.02
2023-08-12T10:25:52.430Z,25.99
2023-08-12T10:26:52.453Z,26.04
2023-08-12T10:27:52.435Z,26.05
2023-08-12T10:28:53.091Z,26.09
2023-08-12T10:29:52.376Z,26.08
2023-08-12T10:30:52.379Z,26.04
2023-08-12T10:31:52.353Z,26.02
2023-08-12T10:32:52.372Z,26.04
2023-08-12T10:33:52.333Z,26.02
2023-08-12T10:34:52.339Z,25.91
2023-08-12T10:35:52.326Z,25.99
2023-08-12T10:37:01.353Z,26.08
2023-08-12T10:37:53.290Z,26.04
2023-08-12T10:38:52.281Z,26.08
2023-08-12T10:39:52.289Z,25.99
2023-08-12T10:40:52.262Z,25.97
2023-08-12T10:41:52.246Z,26.02
2023-08-12T10:42:52.275Z,26.04
2023-08-12T10:43:52.234Z,26.17
2023-08-12T10:44:52.239Z,26.18
2023-08-12T10:45:52.202Z,26.21
2023-08-12T10:46:52.277Z,26.20
2023-08-12T10:47:52.231Z,26.21
2023-08-12T10:48:52.184Z,26.25
2023-08-12T10:49:52.174Z,26.27
2023-08-12T10:50:52.159Z,26.28
2023-08-12T10:51:52.141Z,26.28
2023-08-12T10:52:52.129Z,26.36
2023-08-12T10:53:52.128Z,26.39
2023-08-12T10:54:52.108Z,26.42
2023-08-12T10:55:52.104Z,26.42
2023-08-12T10:56:52.086Z,26.40
2023-08-12T10:57:55.095Z,26.42
2023-08-12T10:58:52.116Z,26.46
2023-08-12T10:59:52.052Z,26.50
2023-08-12T11:00:52.077Z,26.55
2023-08-12T11:01:52.029Z,26.65
2023-08-12T11:02:52.056Z,26.80
2023-08-12T11:03:52.067Z,26.81
2023-08-12T11:04:52.000Z,26.74
2023-08-12T11:05:51.994Z,26.81
2023-08-12T11:06:51.979Z,26.81
2023-08-12T11:07:52.027Z,26.77
2023-08-12T11:08:51.958Z,26.87
2023-08-12T11:09:51.946Z,26.83
2023-08-12T11:10:51.944Z,26.72
2023-08-12T11:11:51.928Z,26.69
2023-08-12T11:12:51.935Z,26.67
2023-08-12T11:13:51.909Z,26.64
2023-08-12T11:14:51.912Z,26.79
2023-08-12T11:15:51.889Z,26.77
2023-08-12T11:16:51.920Z,26.83
2023-08-12T11:17:51.933Z,26.81
2023-08-12T11:18:51.855Z,26.99
2023-08-12T11:19:51.838Z,26.89
2023-08-12T11:20:51.831Z,26.98
2023-08-12T11:21:51.854Z,27.01
2023-08-12T11:22:51.814Z,26.89
2023-08-12T11:23:51.800Z,26.94
2023-08-12T11:24:51.790Z,26.92
2023-08-12T11:25:51.779Z,26.94
2023-08-12T11:26:51.787Z,26.83
2023-08-12T11:27:51.756Z,26.79
2023-08-12T11:28:51.749Z,26.83
2023-08-12T11:29:51.738Z,26.86
2023-08-12T11:30:51.762Z,26.81
2023-08-12T11:31:51.726Z,26.80
2023-08-12T11:32:51.752Z,26.79
2023-08-12T11:33:51.694Z,26.64
2023-08-12T11:34:51.735Z,26.69
2023-08-12T11:35:51.685Z,26.68
2023-08-12T11:36:51.661Z,26.61
2023-08-12T11:37:51.658Z,26.62
2023-08-12T11:38:51.651Z,26.49
2023-08-12T11:39:51.653Z,26.42
2023-08-12T11:40:51.653Z,26.42
2023-08-12T11:41:51.633Z,26.42
2023-08-12T11:42:51.599Z,26.42
2023-08-12T11:43:51.590Z,26.32
2023-08-12T11:44:51.604Z,26.28
2023-08-12T11:45:51.623Z,26.24
2023-08-12T11:46:51.568Z,26.15
2023-08-12T11:47:51.552Z,26.15
2023-08-12T11:48:52.172Z,26.18
2023-08-12T11:49:51.534Z,26.11
2023-08-12T11:50:51.510Z,26.09
2023-08-12T11:51:51.495Z,26.20
2023-08-12T11:52:51.510Z,26.17
2023-08-12T11:53:51.495Z,26.22
2023-08-12T11:54:51.479Z,26.21
2023-08-12T11:55:51.457Z,26.29
2023-08-12T11:56:51.446Z,26.31
2023-08-12T11:57:51.436Z,26.29
2023-08-12T11:58:53.828Z,26.27
2023-08-12T11:59:51.409Z,26.32
2023-08-12T12:00:51.402Z,26.25
2023-08-12T12:01:51.423Z,26.27
2023-08-12T12:02:51.595Z,26.25
2023-08-12T12:03:51.445Z,26.22
2023-08-12T12:04:51.386Z,26.17
2023-08-12T12:05:51.350Z,26.11
2023-08-12T12:06:51.369Z,26.18
2023-08-12T12:07:51.344Z,26.18
2023-08-12T12:08:51.341Z,26.20
2023-08-12T12:09:51.304Z,26.17
2023-08-12T12:10:51.297Z,26.22
2023-08-12T12:11:51.280Z,26.17
2023-08-12T12:12:51.294Z,26.18
2023-08-12T12:13:51.264Z,26.24
2023-08-12T12:14:51.258Z,26.15
2023-08-12T12:15:51.241Z,26.08
2023-08-12T12:16:51.326Z,26.06
2023-08-12T12:17:51.277Z,25.98
2023-08-12T12:18:51.230Z,26.01
2023-08-12T12:19:51.197Z,26.01
2023-08-12T12:20:51.191Z,25.98
2023-08-12T12:21:51.200Z,25.97
2023-08-12T12:22:51.183Z,25.91
2023-08-12T12:23:51.171Z,25.84
2023-08-12T12:24:51.150Z,25.83
2023-08-12T12:25:51.135Z,25.77
2023-08-12T12:26:51.166Z,25.75
2023-08-12T12:27:51.111Z,25.69
2023-08-12T12:28:51.108Z,25.68
2023-08-12T12:29:51.097Z,25.75
2023-08-12T12:30:51.154Z,25.84
2023-08-12T12:31:51.087Z,25.72
2023-08-12T12:32:51.080Z,25.72
2023-08-12T12:33:51.047Z,25.68
2023-08-12T12:34:51.088Z,25.74
2023-08-12T12:35:57.814Z,25.59
2023-08-12T12:36:52.022Z,25.65
2023-08-12T12:37:51.004Z,25.59
2023-08-12T12:38:51.002Z,25.59
2023-08-12T12:39:50.984Z,25.61
2023-08-12T12:40:50.996Z,25.64
2023-08-12T12:41:50.971Z,25.65
2023-08-12T12:42:50.959Z,25.68
2023-08-12T12:43:50.938Z,25.61
2023-08-12T12:44:50.931Z,25.61
2023-08-12T12:45:50.988Z,25.65
2023-08-12T12:46:50.909Z,25.56
2023-08-12T12:47:50.963Z,25.57
2023-08-12T12:48:50.888Z,25.62
2023-08-12T12:49:50.896Z,25.67
2023-08-12T12:50:50.906Z,25.68
2023-08-12T12:51:50.853Z,25.84
2023-08-12T12:52:50.846Z,25.93
2023-08-12T12:53:50.834Z,25.97